Time;durP1;ratioP1;P1;durP2;ratioP2;P2;SDS_P1;SDS_P2;PMS_P1;PMS_P2;Temp;Humidity;BMP_temperature;BMP_pressure;BME280_temperature;BME280_humidity;BME280_pressure;Samples;Min_cycle;Max_cycle;Signal;HPM_P1;HPM_P2
2023/02/28 00:00:42;;;;;;;;;;;3.20;71.50;;;;;;5093207;28;20359;-36
2023/02/28 00:03:08;;;;;;;;;;;3.30;71.40;;;;;;5092773;28;20026;-34
2023/02/28 00:05:34;;;;;;;;;;;3.30;71.40;;;;;;5093063;28;19912;-35
2023/02/28 00:07:59;;;;;;;;;;;3.40;71.30;;;;;;5093114;28;19935;-42
2023/02/28 00:10:26;;;;;;;;;;;3.40;71.10;;;;;;5092914;28;19919;-35
2023/02/28 00:12:52;;;;;;;;;;;3.50;71.10;;;;;;5092874;28;19911;-36
2023/02/28 00:15:18;;;;;;;;;;;3.50;71.00;;;;;;5092851;28;19954;-33
2023/02/28 00:17:44;;;;;;;;;;;3.60;71.00;;;;;;5092492;28;20290;-33
2023/02/28 00:20:11;;;;;;;;;;;3.70;70.90;;;;;;5092450;28;20008;-36
2023/02/28 00:22:44;;;;;;;;;;;3.70;70.80;;;;;;5092395;28;20049;-40
2023/02/28 00:25:11;;;;;;;;;;;3.80;70.70;;;;;;5091129;28;20394;-44
2023/02/28 00:27:37;;;;;;;;;;;3.90;70.60;;;;;;5092739;28;20340;-41
2023/02/28 00:30:03;;;;;;;;;;;3.90;70.60;;;;;;5092671;28;19912;-38
2023/02/28 00:32:29;;;;;;;;;;;3.90;70.60;;;;;;5092809;28;19999;-36
2023/02/28 00:34:55;;;;;;;;;;;3.90;70.60;;;;;;5093045;28;19947;-36
2023/02/28 00:37:20;;;;;;;;;;;3.90;70.60;;;;;;5092413;28;19912;-38
2023/02/28 00:39:46;;;;;;;;;;;3.90;70.60;;;;;;5092255;28;19912;-36
2023/02/28 00:42:12;;;;;;;;;;;3.90;70.60;;;;;;5092254;28;19958;-38
2023/02/28 00:44:37;;;;;;;;;;;3.90;70.60;;;;;;5092249;28;19912;-35
2023/02/28 00:47:03;;;;;;;;;;;4.00;70.60;;;;;;5092194;28;19919;-35
2023/02/28 00:49:28;;;;;;;;;;;4.00;70.50;;;;;;5091683;28;19912;-36
2023/02/28 00:51:54;;;;;;;;;;;4.00;70.50;;;;;;5092177;28;20394;-36
2023/02/28 00:54:20;;;;;;;;;;;4.10;70.50;;;;;;5092137;28;19912;-36
2023/02/28 00:56:45;;;;;;;;;;;4.10;70.40;;;;;;5091918;28;19912;-33
2023/02/28 00:59:11;;;;;;;;;;;4.10;70.40;;;;;;5092089;28;19912;-43
2023/02/28 01:01:37;;;;;;;;;;;4.10;70.30;;;;;;5091903;28;19920;-36
2023/02/28 01:04:03;;;;;;;;;;;4.10;70.30;;;;;;5092053;28;20470;-37
2023/02/28 01:06:28;;;;;;;;;;;4.10;70.20;;;;;;5090775;28;20073;-35
2023/02/28 01:08:54;;;;;;;;;;;4.20;70.20;;;;;;5092278;28;19919;-35
2023/02/28 01:11:19;;;;;;;;;;;4.20;70.00;;;;;;5092027;28;19919;-36
2023/02/28 01:13:45;;;;;;;;;;;4.20;70.00;;;;;;5091940;28;19912;-34
2023/02/28 01:16:11;;;;;;;;;;;4.30;70.00;;;;;;5091926;28;19953;-37
2023/02/28 01:18:37;;;;;;;;;;;4.30;70.00;;;;;;5091785;28;19923;-32
2023/02/28 01:21:04;;;;;;;;;;;4.20;69.90;;;;;;5091835;28;19924;-39
2023/02/28 01:23:29;;;;;;;;;;;4.20;69.90;;;;;;5091681;28;19912;-35
2023/02/28 01:25:55;;;;;;;;;;;4.20;70.00;;;;;;5090588;28;20316;-33
2023/02/28 01:28:20;;;;;;;;;;;4.20;70.00;;;;;;5091732;28;19919;-36
2023/02/28 01:30:49;;;;;;;;;;;4.20;70.00;;;;;;5091689;28;20003;-35
2023/02/28 01:33:15;;;;;;;;;;;4.20;70.00;;;;;;5091795;28;20014;-34
2023/02/28 01:35:41;;;;;;;;;;;4.10;70.00;;;;;;5091578;28;19998;-36
2023/02/28 01:38:06;;;;;;;;;;;4.10;70.10;;;;;;5092076;28;20283;-37
2023/02/28 01:40:32;;;;;;;;;;;4.10;70.20;;;;;;5091578;28;20294;-36
2023/02/28 01:42:58;;;;;;;;;;;4.00;70.20;;;;;;5091249;28;20016;-36
2023/02/28 01:45:28;;;;;;;;;;;4.00;70.30;;;;;;5091705;28;19919;-38
2023/02/28 01:48:04;;;;;;;;;;;4.00;71.00;;;;;;5091627;28;19919;-37
2023/02/28 01:50:32;;;;;;;;;;;4.00;70.40;;;;;;5091428;28;19944;-42
2023/02/28 01:53:00;;;;;;;;;;;4.00;70.40;;;;;;5091489;28;20378;-36
2023/02/28 01:55:28;;;;;;;;;;;4.00;70.40;;;;;;5091845;28;19912;-34
2023/02/28 01:57:56;;;;;;;;;;;4.00;70.50;;;;;;5090202;28;19911;-36
2023/02/28 02:00:23;;;;;;;;;;;4.00;70.50;;;;;;5091260;28;20332;-35
2023/02/28 02:02:50;;;;;;;;;;;4.10;70.60;;;;;;5095412;28;19916;-35
2023/02/28 02:05:18;;;;;;;;;;;4.10;70.50;;;;;;5095704;28;19912;-33
2023/02/28 02:07:46;;;;;;;;;;;4.10;70.50;;;;;;5095490;28;19943;-36
2023/02/28 02:10:14;;;;;;;;;;;4.20;70.50;;;;;;5095268;28;20279;-35
2023/02/28 02:12:43;;;;;;;;;;;4.20;70.50;;;;;;5094970;28;19912;-35
2023/02/28 02:15:15;;;;;;;;;;;4.20;70.40;;;;;;5095321;28;19991;-33
2023/02/28 02:17:45;;;;;;;;;;;4.20;70.40;;;;;;5095218;28;20390;-35
2023/02/28 02:20:14;;;;;;;;;;;4.30;70.40;;;;;;5093472;28;20280;-41
2023/02/28 02:22:43;;;;;;;;;;;4.30;70.40;;;;;;5094969;28;20363;-35
2023/02/28 02:25:08;;;;;;;;;;;4.30;70.30;;;;;;5095057;28;20002;-32
2023/02/28 02:27:43;;;;;;;;;;;4.40;70.30;;;;;;5095040;28;20378;-36
2023/02/28 02:30:20;;;;;;;;;;;4.40;70.30;;;;;;5095167;28;19919;-35
2023/02/28 02:32:58;;;;;;;;;;;4.40;70.30;;;;;;5094717;28;19912;-35
2023/02/28 02:35:27;;;;;;;;;;;4.40;70.20;;;;;;5094887;28;19973;-35
2023/02/28 02:37:58;;;;;;;;;;;4.50;70.20;;;;;;5094887;28;19912;-36
2023/02/28 02:40:30;;;;;;;;;;;4.50;70.20;;;;;;5094900;28;19924;-35
2023/02/28 02:43:10;;;;;;;;;;;4.50;70.20;;;;;;5094575;28;19942;-38
2023/02/28 02:45:45;;;;;;;;;;;4.50;70.20;;;;;;5094663;28;20006;-33
2023/02/28 02:48:12;;;;;;;;;;;4.50;70.20;;;;;;5094574;28;19912;-35
2023/02/28 02:50:43;;;;;;;;;;;4.50;70.10;;;;;;5094899;28;19977;-34
2023/02/28 02:53:10;;;;;;;;;;;4.50;70.10;;;;;;5094891;28;19912;-35
2023/02/28 02:55:38;;;;;;;;;;;4.50;70.00;;;;;;5094728;28;19912;-41
2023/02/28 02:58:06;;;;;;;;;;;4.50;70.00;;;;;;5094349;28;19912;-36
2023/02/28 03:00:37;;;;;;;;;;;4.50;70.00;;;;;;5094142;28;20279;-35
2023/02/28 03:03:03;;;;;;;;;;;4.50;70.00;;;;;;5094182;28;20371;-36
2023/02/28 03:05:33;;;;;;;;;;;4.50;69.90;;;;;;5094273;28;19912;-34
2023/02/28 03:07:59;;;;;;;;;;;4.50;69.90;;;;;;5094264;28;19912;-34
2023/02/28 03:10:29;;;;;;;;;;;4.50;69.90;;;;;;5094389;28;19919;-36
2023/02/28 03:13:03;;;;;;;;;;;4.50;69.90;;;;;;5094499;28;19965;-36
2023/02/28 03:15:35;;;;;;;;;;;4.50;69.80;;;;;;5094214;28;19912;-35
2023/02/28 03:18:04;;;;;;;;;;;4.60;69.90;;;;;;5094215;28;19912;-35
2023/02/28 03:20:36;;;;;;;;;;;4.50;69.70;;;;;;5093887;28;20383;-34
2023/02/28 03:23:22;;;;;;;;;;;4.60;69.70;;;;;;5093883;28;20057;-35
2023/02/28 03:25:54;;;;;;;;;;;4.60;69.70;;;;;;5093119;28;19912;-35
2023/02/28 03:28:26;;;;;;;;;;;4.50;69.70;;;;;;5093583;28;19912;-33
2023/02/28 03:30:54;;;;;;;;;;;4.60;69.60;;;;;;5093827;28;19920;-35
2023/02/28 03:33:26;;;;;;;;;;;4.60;69.60;;;;;;5093630;28;20499;-33
2023/02/28 03:36:06;;;;;;;;;;;4.50;69.50;;;;;;5093790;28;19912;-35
2023/02/28 03:38:31;;;;;;;;;;;4.50;69.50;;;;;;5093673;28;19961;-35
2023/02/28 03:41:10;;;;;;;;;;;4.50;69.50;;;;;;5093465;28;19913;-35
2023/02/28 03:43:38;;;;;;;;;;;4.50;69.50;;;;;;5093696;28;19919;-35
2023/02/28 03:46:08;;;;;;;;;;;4.50;69.40;;;;;;5093418;28;19918;-36
2023/02/28 03:48:40;;;;;;;;;;;4.50;69.30;;;;;;5093723;28;19912;-35
2023/02/28 03:51:08;;;;;;;;;;;4.50;69.20;;;;;;5093769;28;19963;-34
2023/02/28 03:53:44;;;;;;;;;;;4.50;69.10;;;;;;5094039;28;20514;-35
2023/02/28 03:56:20;;;;;;;;;;;4.50;69.10;;;;;;5093395;28;19916;-34
2023/02/28 03:58:51;;;;;;;;;;;4.50;68.90;;;;;;5093307;28;19908;-36
2023/02/28 04:01:25;;;;;;;;;;;4.40;68.80;;;;;;5093040;28;20002;-33
2023/02/28 04:03:51;;;;;;;;;;;4.40;68.80;;;;;;5093053;28;19950;-35
2023/02/28 04:06:20;;;;;;;;;;;4.40;68.80;;;;;;5093214;28;20337;-35
2023/02/28 04:08:46;;;;;;;;;;;4.40;68.60;;;;;;5093032;28;20401;-33
2023/02/28 04:11:14;;;;;;;;;;;4.40;68.60;;;;;;5092969;28;19908;-35
2023/02/28 04:13:40;;;;;;;;;;;4.40;68.40;;;;;;5092762;28;20617;-35
2023/02/28 04:16:11;;;;;;;;;;;4.40;68.30;;;;;;5092805;28;19908;-35
2023/02/28 04:18:38;;;;;;;;;;;4.30;68.00;;;;;;5092302;28;19919;-33
2023/02/28 04:21:04;;;;;;;;;;;4.40;68.70;;;;;;5092425;28;20304;-47
2023/02/28 04:23:30;;;;;;;;;;;4.40;68.00;;;;;;5092146;28;19919;-33
2023/02/28 04:25:56;;;;;;;;;;;4.40;68.00;;;;;;5092654;28;19926;-35
2023/02/28 04:28:21;;;;;;;;;;;4.40;67.90;;;;;;5092623;28;19919;-32
2023/02/28 04:30:47;;;;;;;;;;;4.40;67.70;;;;;;5092612;28;19919;-34
2023/02/28 04:33:12;;;;;;;;;;;4.40;67.60;;;;;;5092555;28;20076;-35
2023/02/28 04:35:38;;;;;;;;;;;4.30;67.50;;;;;;5092605;28;19913;-37
2023/02/28 04:38:03;;;;;;;;;;;4.40;67.50;;;;;;5092534;28;19912;-35
2023/02/28 04:40:29;;;;;;;;;;;4.30;67.20;;;;;;5092599;28;19912;-35
2023/02/28 04:42:54;;;;;;;;;;;4.30;67.20;;;;;;5092592;28;19969;-35
2023/02/28 04:45:20;;;;;;;;;;;4.30;67.20;;;;;;5092498;28;19918;-34
2023/02/28 04:47:45;;;;;;;;;;;4.20;67.00;;;;;;5092418;28;20424;-36
2023/02/28 04:50:11;;;;;;;;;;;4.20;67.00;;;;;;5092224;28;19954;-34
2023/02/28 04:52:36;;;;;;;;;;;4.10;67.10;;;;;;5092176;28;19941;-38
2023/02/28 04:55:02;;;;;;;;;;;4.10;67.20;;;;;;5092019;28;19937;-33
2023/02/28 04:57:27;;;;;;;;;;;4.10;67.20;;;;;;5092220;28;19912;-35
2023/02/28 04:59:53;;;;;;;;;;;4.10;67.30;;;;;;5092294;28;19912;-35
2023/02/28 05:02:20;;;;;;;;;;;4.00;67.30;;;;;;5092239;28;20283;-35
2023/02/28 05:04:45;;;;;;;;;;;4.00;67.30;;;;;;5092087;28;19912;-38
2023/02/28 05:07:11;;;;;;;;;;;4.00;67.40;;;;;;5092024;28;20287;-35
2023/02/28 05:09:36;;;;;;;;;;;4.00;67.40;;;;;;5091801;28;19946;-35
2023/02/28 05:12:02;;;;;;;;;;;4.00;67.50;;;;;;5091753;28;19912;-34
2023/02/28 05:14:27;;;;;;;;;;;4.00;67.50;;;;;;5091292;28;20034;-35
2023/02/28 05:16:53;;;;;;;;;;;4.00;67.50;;;;;;5090295;28;19919;-35
2023/02/28 05:19:18;;;;;;;;;;;3.90;67.50;;;;;;5091654;28;20130;-35
2023/02/28 05:21:51;;;;;;;;;;;3.90;67.50;;;;;;5091392;28;20290;-35
2023/02/28 05:24:22;;;;;;;;;;;3.90;67.60;;;;;;5092023;28;19916;-35
2023/02/28 05:26:48;;;;;;;;;;;3.90;67.60;;;;;;5091613;28;20441;-36
2023/02/28 05:29:14;;;;;;;;;;;3.90;67.70;;;;;;5091411;28;19963;-35
2023/02/28 05:31:39;;;;;;;;;;;3.90;67.60;;;;;;5091304;28;19912;-35
2023/02/28 05:34:05;;;;;;;;;;;3.90;67.60;;;;;;5091502;28;20426;-35
2023/02/28 05:36:31;;;;;;;;;;;3.90;67.60;;;;;;5090623;28;20403;-35
2023/02/28 05:38:56;;;;;;;;;;;3.90;67.60;;;;;;5091942;28;19919;-37
2023/02/28 05:41:22;;;;;;;;;;;3.90;67.50;;;;;;5091542;28;19938;-36
2023/02/28 05:43:47;;;;;;;;;;;3.90;67.40;;;;;;5091722;28;19919;-36
2023/02/28 05:46:13;;;;;;;;;;;3.90;67.40;;;;;;5091631;28;20288;-37
2023/02/28 05:48:39;;;;;;;;;;;3.90;67.40;;;;;;5091605;28;19934;-35
2023/02/28 05:51:05;;;;;;;;;;;3.90;68.00;;;;;;5091466;28;19912;-35
2023/02/28 05:53:31;;;;;;;;;;;3.90;67.40;;;;;;5091467;28;19998;-35
2023/02/28 05:55:56;;;;;;;;;;;3.90;67.30;;;;;;5091642;28;19916;-36
2023/02/28 05:58:23;;;;;;;;;;;3.90;67.30;;;;;;5091907;28;19912;-35
2023/02/28 06:00:48;;;;;;;;;;;3.90;67.30;;;;;;5091547;28;20002;-37
2023/02/28 06:03:14;;;;;;;;;;;3.90;67.20;;;;;;5091670;28;19999;-36
2023/02/28 06:05:40;;;;;;;;;;;3.90;67.20;;;;;;5090106;28;19961;-35
2023/02/28 06:08:08;;;;;;;;;;;3.90;67.20;;;;;;5091557;28;19912;-36
2023/02/28 06:10:35;;;;;;;;;;;3.90;67.30;;;;;;5091434;28;19912;-35
2023/02/28 06:13:02;;;;;;;;;;;3.90;67.40;;;;;;5091458;28;19912;-36
2023/02/28 06:15:28;;;;;;;;;;;4.00;67.50;;;;;;5090216;28;19926;-35
2023/02/28 06:17:53;;;;;;;;;;;4.00;67.40;;;;;;5090031;28;19919;-35
2023/02/28 06:20:19;;;;;;;;;;;4.00;67.20;;;;;;5091323;28;20419;-40
2023/02/28 06:22:44;;;;;;;;;;;3.90;67.30;;;;;;5089881;28;19924;-40
2023/02/28 06:25:10;;;;;;;;;;;3.90;67.30;;;;;;5091163;28;20166;-35
2023/02/28 06:27:36;;;;;;;;;;;3.90;67.40;;;;;;5091344;28;19912;-35
2023/02/28 06:30:01;;;;;;;;;;;4.00;67.50;;;;;;5091256;28;20026;-35
2023/02/28 06:32:27;;;;;;;;;;;4.00;67.50;;;;;;5091235;28;19916;-36
2023/02/28 06:34:52;;;;;;;;;;;4.00;67.40;;;;;;5091172;28;19912;-36
2023/02/28 06:37:18;;;;;;;;;;;4.10;67.40;;;;;;5091111;28;19912;-35
2023/02/28 06:39:44;;;;;;;;;;;4.10;68.00;;;;;;5091217;28;19912;-36
2023/02/28 06:42:09;;;;;;;;;;;4.20;67.40;;;;;;5091018;28;19916;-35
2023/02/28 06:44:35;;;;;;;;;;;4.30;67.40;;;;;;5091135;28;19998;-36
2023/02/28 06:47:03;;;;;;;;;;;4.30;67.30;;;;;;5091728;28;19978;-35
2023/02/28 06:49:29;;;;;;;;;;;4.30;67.20;;;;;;5095056;28;19912;-35
2023/02/28 06:51:54;;;;;;;;;;;4.40;67.20;;;;;;5095070;28;20336;-35
2023/02/28 06:54:20;;;;;;;;;;;4.40;67.10;;;;;;5094632;28;19948;-35
2023/02/28 06:56:46;;;;;;;;;;;4.40;67.10;;;;;;5094515;28;19912;-38
2023/02/28 06:59:12;;;;;;;;;;;4.40;67.10;;;;;;5094728;28;19912;-45
2023/02/28 07:01:38;;;;;;;;;;;4.40;67.00;;;;;;5093101;28;19916;-35
2023/02/28 07:04:05;;;;;;;;;;;4.40;67.00;;;;;;5094518;28;19972;-35
2023/02/28 07:06:31;;;;;;;;;;;4.40;67.00;;;;;;5094377;28;19912;-34
2023/02/28 07:08:56;;;;;;;;;;;4.50;67.00;;;;;;5094431;28;19922;-35
2023/02/28 07:11:25;;;;;;;;;;;4.50;67.00;;;;;;5094391;28;19938;-35
2023/02/28 07:13:51;;;;;;;;;;;4.50;66.90;;;;;;5094249;28;19912;-33
2023/02/28 07:16:16;;;;;;;;;;;4.50;66.80;;;;;;5094227;28;19919;-36
2023/02/28 07:18:42;;;;;;;;;;;4.50;66.80;;;;;;5092826;28;20006;-35
2023/02/28 07:21:09;;;;;;;;;;;4.60;66.80;;;;;;5093956;28;19948;-35
2023/02/28 07:23:37;;;;;;;;;;;4.60;66.70;;;;;;5094155;28;19918;-35
2023/02/28 07:26:03;;;;;;;;;;;4.70;66.70;;;;;;5094278;28;19936;-35
2023/02/28 07:28:29;;;;;;;;;;;4.60;66.60;;;;;;5094223;28;19912;-36
2023/02/28 07:30:54;;;;;;;;;;;4.60;66.60;;;;;;5093976;28;19912;-35
2023/02/28 07:33:20;;;;;;;;;;;4.70;66.60;;;;;;5093739;28;19912;-34
2023/02/28 07:35:45;;;;;;;;;;;4.60;66.50;;;;;;5093894;28;19961;-35
2023/02/28 07:38:12;;;;;;;;;;;4.60;66.50;;;;;;5093945;28;19912;-35
2023/02/28 07:40:37;;;;;;;;;;;4.60;66.50;;;;;;5094162;28;20022;-41
2023/02/28 07:43:03;;;;;;;;;;;4.60;66.50;;;;;;5093562;28;20079;-35
2023/02/28 07:45:29;;;;;;;;;;;4.60;66.50;;;;;;5093891;28;20271;-37
2023/02/28 07:47:55;;;;;;;;;;;4.60;66.40;;;;;;5093566;28;19912;-35
2023/02/28 07:50:20;;;;;;;;;;;4.70;66.40;;;;;;5093777;28;20356;-36
2023/02/28 07:52:46;;;;;;;;;;;4.70;66.30;;;;;;5093805;28;19915;-36
2023/02/28 07:55:11;;;;;;;;;;;4.70;66.20;;;;;;5093999;28;19919;-34
2023/02/28 07:57:37;;;;;;;;;;;4.80;66.20;;;;;;5093754;28;20316;-38
2023/02/28 08:00:09;;;;;;;;;;;4.70;66.10;;;;;;5092463;28;19912;-41
2023/02/28 08:02:34;;;;;;;;;;;4.80;66.10;;;;;;5093048;28;20321;-35
2023/02/28 08:05:00;;;;;;;;;;;4.80;66.00;;;;;;5093363;28;19966;-33
2023/02/28 08:07:25;;;;;;;;;;;4.80;65.90;;;;;;5093561;28;19912;-35
2023/02/28 08:09:51;;;;;;;;;;;4.70;66.10;;;;;;5093391;28;19919;-36
2023/02/28 08:12:16;;;;;;;;;;;4.70;67.30;;;;;;5093362;28;19965;-36
2023/02/28 08:14:42;;;;;;;;;;;4.60;67.00;;;;;;5093066;28;20342;-35
2023/02/28 08:17:07;;;;;;;;;;;4.70;66.90;;;;;;5091653;28;20053;-36
2023/02/28 08:19:33;;;;;;;;;;;4.60;66.90;;;;;;5093149;28;19912;-39
2023/02/28 08:21:58;;;;;;;;;;;4.70;66.80;;;;;;5093037;28;20060;-36
2023/02/28 08:24:24;;;;;;;;;;;4.70;66.50;;;;;;5092885;28;19916;-36
2023/02/28 08:26:50;;;;;;;;;;;4.70;66.10;;;;;;5092789;28;19938;-36
2023/02/28 08:29:15;;;;;;;;;;;4.80;66.00;;;;;;5092621;28;19916;-36
2023/02/28 08:31:41;;;;;;;;;;;4.80;66.10;;;;;;5092645;28;19999;-36
2023/02/28 08:34:07;;;;;;;;;;;4.80;65.90;;;;;;5092727;28;19916;-34
2023/02/28 08:36:33;;;;;;;;;;;4.80;65.70;;;;;;5092971;28;19912;-37
2023/02/28 08:38:59;;;;;;;;;;;4.80;65.40;;;;;;5092164;28;20015;-37
2023/02/28 08:41:25;;;;;;;;;;;4.90;65.30;;;;;;5091023;28;20283;-33
2023/02/28 08:43:50;;;;;;;;;;;4.90;65.00;;;;;;5092651;28;19912;-36
2023/02/28 08:46:16;;;;;;;;;;;4.90;65.60;;;;;;5092125;28;19969;-35
2023/02/28 08:48:41;;;;;;;;;;;4.90;66.00;;;;;;5092474;28;19912;-34
2023/02/28 08:51:09;;;;;;;;;;;4.90;66.30;;;;;;5092326;28;20371;-34
2023/02/28 08:53:35;;;;;;;;;;;4.90;66.20;;;;;;5092523;28;19920;-36
2023/02/28 08:56:04;;;;;;;;;;;4.90;66.40;;;;;;5092271;28;19912;-36
2023/02/28 08:58:30;;;;;;;;;;;4.90;66.20;;;;;;5091902;28;19912;-35
2023/02/28 09:00:56;;;;;;;;;;;5.00;65.70;;;;;;5091110;28;19935;-41
2023/02/28 09:03:21;;;;;;;;;;;5.00;65.70;;;;;;5091228;28;19916;-41
2023/02/28 09:05:57;;;;;;;;;;;5.00;65.70;;;;;;5090873;28;19916;-36
2023/02/28 09:08:27;;;;;;;;;;;5.00;66.50;;;;;;5091008;28;20314;-33
2023/02/28 09:10:52;;;;;;;;;;;5.00;66.50;;;;;;5091779;28;20287;-35
2023/02/28 09:13:18;;;;;;;;;;;5.00;66.30;;;;;;5092187;28;19912;-38
2023/02/28 09:15:44;;;;;;;;;;;5.10;65.80;;;;;;5091972;28;20312;-33
2023/02/28 09:18:09;;;;;;;;;;;5.10;65.40;;;;;;5092058;28;20008;-36
2023/02/28 09:20:37;;;;;;;;;;;5.10;65.40;;;;;;5091852;28;19916;-34
2023/02/28 09:23:02;;;;;;;;;;;5.10;64.90;;;;;;5091771;28;19927;-35
2023/02/28 09:25:28;;;;;;;;;;;5.10;64.60;;;;;;5091900;28;19912;-36
2023/02/28 09:27:53;;;;;;;;;;;5.10;64.80;;;;;;5092125;28;19943;-35
2023/02/28 09:30:19;;;;;;;;;;;5.20;65.60;;;;;;5091958;28;19916;-42
2023/02/28 09:32:51;;;;;;;;;;;5.20;67.80;;;;;;5091700;28;20252;-34
2023/02/28 09:35:17;;;;;;;;;;;5.30;67.70;;;;;;5090465;28;19965;-36
2023/02/28 09:37:43;;;;;;;;;;;5.30;69.30;;;;;;5091586;28;20379;-35
2023/02/28 09:40:09;;;;;;;;;;;5.30;68.90;;;;;;5091740;28;19912;-38
2023/02/28 09:42:35;;;;;;;;;;;5.30;71.60;;;;;;5091617;28;19916;-36
2023/02/28 09:45:06;;;;;;;;;;;5.40;70.70;;;;;;5091491;28;19920;-40
2023/02/28 09:47:33;;;;;;;;;;;5.40;69.70;;;;;;5091332;28;19912;-35
2023/02/28 09:50:00;;;;;;;;;;;5.40;69.10;;;;;;5090557;28;19916;-36
2023/02/28 09:52:30;;;;;;;;;;;5.50;67.80;;;;;;5091523;28;19912;-35
2023/02/28 09:55:16;;;;;;;;;;;5.50;67.10;;;;;;5091567;28;20348;-36
2023/02/28 09:57:42;;;;;;;;;;;5.50;67.50;;;;;;5091327;28;19919;-35
2023/02/28 10:00:09;;;;;;;;;;;5.50;67.40;;;;;;5091330;28;20271;-36
2023/02/28 10:02:44;;;;;;;;;;;5.50;66.40;;;;;;5089880;28;19916;-35
2023/02/28 10:05:14;;;;;;;;;;;5.50;66.20;;;;;;5091291;28;20291;-36
2023/02/28 10:07:48;;;;;;;;;;;5.60;68.20;;;;;;5091411;28;19912;-36
2023/02/28 10:10:26;;;;;;;;;;;5.60;69.10;;;;;;5091420;28;20378;-35
2023/02/28 10:12:53;;;;;;;;;;;5.70;70.00;;;;;;5091366;28;19958;-35
2023/02/28 10:15:21;;;;;;;;;;;5.70;68.50;;;;;;5091409;28;19912;-35
2023/02/28 10:17:48;;;;;;;;;;;5.70;68.30;;;;;;5091179;28;20296;-35
2023/02/28 10:20:19;;;;;;;;;;;5.80;68.40;;;;;;5091426;28;19912;-35
2023/02/28 10:22:53;;;;;;;;;;;5.80;68.50;;;;;;5093648;28;19920;-35
2023/02/28 10:25:20;;;;;;;;;;;5.90;67.90;;;;;;5095333;28;19969;-35
2023/02/28 10:27:46;;;;;;;;;;;6.00;68.20;;;;;;5093955;28;19966;-34
2023/02/28 10:30:13;;;;;;;;;;;6.00;70.60;;;;;;5093905;28;19955;-34
2023/02/28 10:32:39;;;;;;;;;;;6.10;69.20;;;;;;5095040;28;20290;-35
2023/02/28 10:35:11;;;;;;;;;;;6.10;68.80;;;;;;5095037;28;19912;-36
2023/02/28 10:37:40;;;;;;;;;;;6.10;68.10;;;;;;5095150;28;19923;-35
2023/02/28 10:40:24;;;;;;;;;;;6.20;68.50;;;;;;5094819;28;20061;-37
2023/02/28 10:42:58;;;;;;;;;;;6.20;68.40;;;;;;5095175;28;20415;-38
2023/02/28 10:45:25;;;;;;;;;;;6.30;70.30;;;;;;5094762;28;19912;-34
2023/02/28 10:47:52;;;;;;;;;;;6.40;70.20;;;;;;5094660;28;20430;-36
2023/02/28 10:50:38;;;;;;;;;;;6.40;70.20;;;;;;5094639;28;19912;-46
2023/02/28 10:53:10;;;;;;;;;;;6.40;71.30;;;;;;5094650;28;20006;-34
2023/02/28 10:55:35;;;;;;;;;;;6.50;70.00;;;;;;5094510;28;19965;-36
2023/02/28 10:58:01;;;;;;;;;;;6.60;67.20;;;;;;5094878;28;19995;-35
2023/02/28 11:00:31;;;;;;;;;;;6.60;66.60;;;;;;5094775;28;20313;-35
2023/02/28 11:02:57;;;;;;;;;;;6.70;67.70;;;;;;5094780;28;19916;-35
2023/02/28 11:05:26;;;;;;;;;;;6.70;69.00;;;;;;5094844;28;19957;-40
2023/02/28 11:07:55;;;;;;;;;;;6.80;68.30;;;;;;5094643;28;20374;-37
2023/02/28 11:10:23;;;;;;;;;;;6.80;66.80;;;;;;5094732;28;19912;-36
2023/02/28 11:12:49;;;;;;;;;;;6.80;66.80;;;;;;5094720;28;20367;-39
2023/02/28 11:15:25;;;;;;;;;;;6.90;67.40;;;;;;5094367;28;19919;-35
2023/02/28 11:18:00;;;;;;;;;;;6.90;66.80;;;;;;5094282;28;19919;-34
2023/02/28 11:20:27;;;;;;;;;;;6.90;67.50;;;;;;5094217;28;19912;-35
2023/02/28 11:22:54;;;;;;;;;;;6.90;68.40;;;;;;5094219;28;19971;-36
2023/02/28 11:25:31;;;;;;;;;;;7.00;68.40;;;;;;5094787;28;20336;-39
2023/02/28 11:27:57;;;;;;;;;;;7.00;66.90;;;;;;5094100;28;19965;-34
2023/02/28 11:30:27;;;;;;;;;;;7.00;67.40;;;;;;5094494;28;19912;-36
2023/02/28 11:32:53;;;;;;;;;;;7.00;66.60;;;;;;5093617;28;20283;-43
2023/02/28 11:35:34;;;;;;;;;;;7.00;66.00;;;;;;5093327;28;19958;-44
2023/02/28 11:38:00;;;;;;;;;;;7.10;66.60;;;;;;5094398;28;19913;-34
2023/02/28 11:40:30;;;;;;;;;;;7.10;64.70;;;;;;5094273;28;19934;-34
2023/02/28 11:43:11;;;;;;;;;;;7.10;65.00;;;;;;5093861;28;19916;-33
2023/02/28 11:45:52;;;;;;;;;;;7.20;65.60;;;;;;5093781;28;19916;-35
2023/02/28 11:48:17;;;;;;;;;;;7.20;63.20;;;;;;5094098;28;20037;-36
2023/02/28 11:50:52;;;;;;;;;;;7.20;61.40;;;;;;5094084;28;19920;-35
2023/02/28 11:53:17;;;;;;;;;;;7.20;62.70;;;;;;5093913;28;20359;-36
2023/02/28 11:55:54;;;;;;;;;;;7.20;65.10;;;;;;5093697;28;19919;-35
2023/02/28 11:58:26;;;;;;;;;;;7.20;66.20;;;;;;5092521;28;19957;-36
2023/02/28 12:01:00;;;;;;;;;;;7.30;64.80;;;;;;5093909;28;20419;-33
2023/02/28 12:03:44;;;;;;;;;;;7.20;65.70;;;;;;5093391;28;19916;-35
2023/02/28 12:06:32;;;;;;;;;;;7.20;65.60;;;;;;5093421;28;19912;-35
2023/02/28 12:09:10;;;;;;;;;;;7.30;65.00;;;;;;5093292;28;19912;-36
2023/02/28 12:11:36;;;;;;;;;;;7.40;63.70;;;;;;5093474;28;19912;-36
2023/02/28 12:14:20;;;;;;;;;;;7.40;63.60;;;;;;5093448;28;19919;-33
2023/02/28 12:16:57;;;;;;;;;;;7.50;63.30;;;;;;5093526;28;20339;-35
2023/02/28 12:19:29;;;;;;;;;;;7.50;61.00;;;;;;5093401;28;19912;-35
2023/02/28 12:22:17;;;;;;;;;;;7.60;62.90;;;;;;5092934;28;19920;-36
2023/02/28 12:24:49;;;;;;;;;;;7.70;61.70;;;;;;5087494;28;19919;-34
2023/02/28 12:27:16;;;;;;;;;;;7.60;62.20;;;;;;5093389;28;19912;-35
2023/02/28 12:29:42;;;;;;;;;;;7.60;60.40;;;;;;5093201;28;19938;-35
2023/02/28 12:32:26;;;;;;;;;;;7.60;59.00;;;;;;5092206;28;19912;-36
2023/02/28 12:34:54;;;;;;;;;;;7.60;59.40;;;;;;5093099;28;20298;-34
2023/02/28 12:37:25;;;;;;;;;;;7.50;58.40;;;;;;5093377;28;19916;-37
2023/02/28 12:39:54;;;;;;;;;;;7.60;59.30;;;;;;5092956;28;19962;-37
2023/02/28 12:42:31;;;;;;;;;;;7.60;59.00;;;;;;5093033;28;19923;-36
2023/02/28 12:45:10;;;;;;;;;;;7.70;59.40;;;;;;5092421;28;20257;-35
2023/02/28 12:47:37;;;;;;;;;;;7.70;59.70;;;;;;5092948;28;19955;-35
2023/02/28 12:50:04;;;;;;;;;;;7.80;61.30;;;;;;5092772;28;20003;-36
2023/02/28 12:52:35;;;;;;;;;;;7.90;61.10;;;;;;5092690;28;19912;-36
2023/02/28 12:55:08;;;;;;;;;;;8.00;59.60;;;;;;5092846;28;20443;-37
2023/02/28 12:57:41;;;;;;;;;;;8.00;60.00;;;;;;5092761;28;19928;-43
2023/02/28 13:00:12;;;;;;;;;;;8.10;60.00;;;;;;5092628;28;19963;-37
2023/02/28 13:02:40;;;;;;;;;;;8.00;60.90;;;;;;5091696;28;19960;-35
2023/02/28 13:05:24;;;;;;;;;;;8.10;58.60;;;;;;5092864;28;20336;-36
2023/02/28 13:08:16;;;;;;;;;;;8.10;59.60;;;;;;5092444;28;19916;-37
2023/02/28 13:10:46;;;;;;;;;;;8.10;60.10;;;;;;5092906;28;19970;-36
2023/02/28 13:13:19;;;;;;;;;;;8.20;60.10;;;;;;5092577;28;19918;-33
2023/02/28 13:16:00;;;;;;;;;;;8.20;57.80;;;;;;5092375;28;19918;-36
2023/02/28 13:18:31;;;;;;;;;;;8.20;59.40;;;;;;5092638;28;20274;-36
2023/02/28 13:20:57;;;;;;;;;;;8.30;61.10;;;;;;5092104;28;19966;-37
2023/02/28 13:23:51;;;;;;;;;;;8.30;59.50;;;;;;5092226;28;19963;-35
2023/02/28 13:26:18;;;;;;;;;;;8.30;59.70;;;;;;5087424;28;20699;-35
2023/02/28 13:29:16;;;;;;;;;;;8.30;60.10;;;;;;5092200;28;20235;-35
2023/02/28 13:32:00;;;;;;;;;;;8.40;58.20;;;;;;5068932;28;20002;-36
2023/02/28 13:34:25;;;;;;;;;;;8.40;59.70;;;;;;5092044;28;19912;-38
2023/02/28 13:37:09;;;;;;;;;;;8.40;59.70;;;;;;5091999;28;19919;-37
2023/02/28 13:39:34;;;;;;;;;;;8.40;59.40;;;;;;5092203;28;19923;-36
2023/02/28 13:42:19;;;;;;;;;;;8.60;59.30;;;;;;5092302;28;19916;-36
2023/02/28 13:45:05;;;;;;;;;;;8.60;60.70;;;;;;5091832;28;19962;-36
2023/02/28 13:47:44;;;;;;;;;;;8.70;60.70;;;;;;5091592;28;20316;-36
2023/02/28 13:50:25;;;;;;;;;;;8.70;61.10;;;;;;5092073;28;19944;-36
2023/02/28 13:52:54;;;;;;;;;;;8.80;56.70;;;;;;5091830;28;19912;-36
2023/02/28 13:55:24;;;;;;;;;;;8.70;56.30;;;;;;5091695;28;19912;-35
2023/02/28 13:57:53;;;;;;;;;;;8.70;57.70;;;;;;5090826;28;19990;-35
2023/02/28 14:00:21;;;;;;;;;;;8.70;57.50;;;;;;5091668;28;19912;-35
2023/02/28 14:03:04;;;;;;;;;;;8.70;57.90;;;;;;5091606;28;20007;-35
2023/02/28 14:05:32;;;;;;;;;;;8.80;60.00;;;;;;5091901;28;19934;-36
2023/02/28 14:07:59;;;;;;;;;;;8.80;61.60;;;;;;5091326;28;20367;-36
2023/02/28 14:10:25;;;;;;;;;;;8.90;55.00;;;;;;5091716;28;19933;-36
2023/02/28 14:12:59;;;;;;;;;;;8.80;56.40;;;;;;5091889;28;19918;-36
2023/02/28 14:15:38;;;;;;;;;;;8.80;54.80;;;;;;5091802;28;19912;-34
2023/02/28 14:18:06;;;;;;;;;;;8.80;53.70;;;;;;5091615;28;19912;-36
2023/02/28 14:20:33;;;;;;;;;;;8.80;55.20;;;;;;5091418;28;19954;-36
2023/02/28 14:23:10;;;;;;;;;;;8.80;55.90;;;;;;5092014;28;19939;-36
2023/02/28 14:25:43;;;;;;;;;;;8.80;55.60;;;;;;5091421;28;19919;-36
2023/02/28 14:28:12;;;;;;;;;;;8.90;55.40;;;;;;5091472;28;19920;-36
2023/02/28 14:30:43;;;;;;;;;;;9.00;54.60;;;;;;5091422;28;19912;-36
2023/02/28 14:33:21;;;;;;;;;;;8.90;54.50;;;;;;5091338;28;19915;-36
2023/02/28 14:35:53;;;;;;;;;;;9.00;56.90;;;;;;5091166;28;19970;-39
2023/02/28 14:38:21;;;;;;;;;;;9.10;57.20;;;;;;5091261;28;19908;-35
2023/02/28 14:40:48;;;;;;;;;;;9.00;59.10;;;;;;5091216;28;20337;-35